Map

Track Data

SID SEASON NUMBER BASIN SUBBASIN NAME ISO_TIME NATURE LAT LON WMO_WIND WMO_PRES WMO_AGENCY TRACK_TYPE DIST2LAND LANDFALL IFLAG USA_AGENCY USA_ATCF_ID USA_LAT USA_LON USA_RECORD USA_STATUS USA_WIND USA_PRES USA_SSHS USA_R34_NE USA_R34_SE USA_R34_SW USA_R34_NW USA_R50_NE USA_R50_SE USA_R50_SW USA_R50_NW USA_R64_NE USA_R64_SE USA_R64_SW USA_R64_NW USA_POCI USA_ROCI USA_RMW USA_EYE TOKYO_LAT TOKYO_LON TOKYO_GRADE TOKYO_WIND TOKYO_PRES TOKYO_R50_DIR TOKYO_R50_LONG TOKYO_R50_SHORT TOKYO_R30_DIR TOKYO_R30_LONG TOKYO_R30_SHORT TOKYO_LAND CMA_LAT CMA_LON CMA_CAT CMA_WIND CMA_PRES HKO_LAT HKO_LON HKO_CAT HKO_WIND HKO_PRES NEWDELHI_LAT NEWDELHI_LON NEWDELHI_GRADE NEWDELHI_WIND NEWDELHI_PRES NEWDELHI_CI NEWDELHI_DP NEWDELHI_POCI REUNION_LAT REUNION_LON REUNION_TYPE REUNION_WIND REUNION_PRES REUNION_TNUM REUNION_CI REUNION_RMW REUNION_R34_NE REUNION_R34_SE REUNION_R34_SW REUNION_R34_NW REUNION_R50_NE REUNION_R50_SE REUNION_R50_SW REUNION_R50_NW REUNION_R64_NE REUNION_R64_SE REUNION_R64_SW REUNION_R64_NW BOM_LAT BOM_LON BOM_TYPE BOM_WIND BOM_PRES BOM_TNUM BOM_CI BOM_RMW BOM_R34_NE BOM_R34_SE BOM_R34_SW BOM_R34_NW BOM_R50_NE BOM_R50_SE BOM_R50_SW BOM_R50_NW BOM_R64_NE BOM_R64_SE BOM_R64_SW BOM_R64_NW BOM_ROCI BOM_POCI BOM_EYE BOM_POS_METHOD BOM_PRES_METHOD NADI_LAT NADI_LON NADI_CAT NADI_WIND NADI_PRES WELLINGTON_LAT WELLINGTON_LON WELLINGTON_WIND WELLINGTON_PRES DS824_LAT DS824_LON DS824_STAGE DS824_WIND DS824_PRES TD9636_LAT TD9636_LON TD9636_STAGE TD9636_WIND TD9636_PRES TD9635_LAT TD9635_LON TD9635_WIND TD9635_PRES TD9635_ROCI NEUMANN_LAT NEUMANN_LON NEUMANN_CLASS NEUMANN_WIND NEUMANN_PRES MLC_LAT MLC_LON MLC_CLASS MLC_WIND MLC_PRES USA_GUST BOM_GUST BOM_GUST_PER REUNION_GUST REUNION_GUST_PER USA_SEAHGT USA_SEARAD_NE USA_SEARAD_SE USA_SEARAD_SW USA_SEARAD_NW STORM_SPEED STORM_DIR
1959167N21265 1959 36 NA GM BEULAH 1959-06-15 18:00:00 TS 21.1000 -94.7000 35 hurdat_atl main 222 221 O_____________ hurdat_atl AL021959 21.1000 -94.7000 TS 35 0 7 317
1959167N21265 1959 36 NA GM BEULAH 1959-06-15 21:00:00 TS 21.3476 -94.9474 main 221 217 P_____________ AL021959 21.3476 -94.9474 TS 37 0 7 317
1959167N21265 1959 36 NA GM BEULAH 1959-06-16 00:00:00 TS 21.6000 -95.2000 40 hurdat_atl main 217 197 O_____________ hurdat_atl AL021959 21.6000 -95.2000 TS 40 0 7 317
1959167N21265 1959 36 NA GM BEULAH 1959-06-16 03:00:00 TS 21.8575 -95.4575 main 188 174 P_____________ AL021959 21.8575 -95.4575 TS 45 0 7 317
1959167N21265 1959 36 NA GM BEULAH 1959-06-16 06:00:00 TS 22.1000 -95.7000 50 hurdat_atl main 174 159 O_____________ hurdat_atl AL021959 22.1000 -95.7000 TS 50 0 6 317
1959167N21265 1959 36 NA GM BEULAH 1959-06-16 09:00:00 TS 22.3150 -95.9225 main 164 155 P_____________ AL021959 22.3150 -95.9225 TS 52 0 5 317
1959167N21265 1959 36 NA GM BEULAH 1959-06-16 12:00:00 TS 22.5000 -96.1000 55 hurdat_atl main 159 159 O_____________ hurdat_atl AL021959 22.5000 -96.1000 TS 55 0 5 322
1959167N21265 1959 36 NA GM BEULAH 1959-06-16 15:00:00 TS 22.6725 -96.2226 main 164 153 P_____________ AL021959 22.6725 -96.2226 TS 57 0 4 329
1959167N21265 1959 36 NA GM BEULAH 1959-06-16 18:00:00 TS 22.8000 -96.3000 60 987 hurdat_atl main 153 143 O_____________ hurdat_atl AL021959 22.8000 -96.3000 TS 60 987 0 2 327
1959167N21265 1959 36 NA GM BEULAH 1959-06-16 21:00:00 TS 22.8650 -96.3575 main 143 143 P_____________ AL021959 22.8650 -96.3575 TS 60 986 0 1 320
1959167N21265 1959 36 NA GM BEULAH 1959-06-17 00:00:00 TS 22.9000 -96.4000 60 hurdat_atl main 143 143 I_____________ hurdat_atl AL021959 22.9000 -96.4000 TS 60 986 0 1 321
1959167N21265 1959 36 NA GM BEULAH 1959-06-17 03:00:00 TS 22.9575 -96.4425 main 143 133 P_____________ AL021959 22.9575 -96.4425 TS 60 985 0 1 320
1959167N21265 1959 36 NA GM BEULAH 1959-06-17 06:00:00 TS 23.0000 -96.5000 60 985 hurdat_atl main 133 122 O_____________ hurdat_atl AL021959 23.0000 -96.5000 TS 60 985 0 1 293
1959167N21265 1959 36 NA GM BEULAH 1959-06-17 09:00:00 TS 23.0150 -96.5925 main 122 112 P_____________ AL021959 23.0150 -96.5925 TS 55 988 0 2 270
1959167N21265 1959 36 NA GM BEULAH 1959-06-17 12:00:00 TS 23.0000 -96.7000 50 992 hurdat_atl main 112 102 O_____________ hurdat_atl AL021959 23.0000 -96.7000 TS 50 992 0 2 258
1959167N21265 1959 36 NA GM BEULAH 1959-06-17 15:00:00 TS 22.9725 -96.8075 main 102 92 P_____________ AL021959 22.9725 -96.8075 TS 50 992 0 2 241
1959167N21265 1959 36 NA GM BEULAH 1959-06-17 18:00:00 TS 22.9000 -96.9000 50 992 hurdat_atl main 92 81 O_____________ hurdat_atl AL021959 22.9000 -96.9000 TS 50 992 0 3 214
1959167N21265 1959 36 NA GM BEULAH 1959-06-17 21:00:00 TS 22.7650 -96.9575 main 81 81 P_____________ AL021959 22.7650 -96.9575 TS 47 994 0 3 196
1959167N21265 1959 36 NA GM BEULAH 1959-06-18 00:00:00 TS 22.6000 -97.0000 45 997 hurdat_atl main 82 82 O_____________ hurdat_atl AL021959 22.6000 -97.0000 TS 45 997 0 3 195
1959167N21265 1959 36 NA GM BEULAH 1959-06-18 03:00:00 TS 22.4425 -97.0500 main 82 68 P_____________ AL021959 22.4425 -97.0500 TS 42 998 0 3 196
1959167N21265 1959 36 NA GM BEULAH 1959-06-18 06:00:00 TS 22.3000 -97.1000 40 hurdat_atl main 68 60 I_____________ hurdat_atl AL021959 22.3000 -97.1000 TS 40 999 0 3 198
1959167N21265 1959 36 NA GM BEULAH 1959-06-18 09:00:00 TS 22.1850 -97.1500 main 60 45 P_____________ AL021959 22.1850 -97.1500 TS 37 1000 0 2 205
1959167N21265 1959 36 NA GM BEULAH 1959-06-18 12:00:00 TS 22.1000 -97.2000 35 1001 hurdat_atl main 45 45 O_____________ hurdat_atl AL021959 22.1000 -97.2000 TS 35 1001 0 2 214
1959167N21265 1959 36 NA GM BEULAH 1959-06-18 15:00:00 TS 22.0500 -97.2500 main 45 30 P_____________ AL021959 22.0500 -97.2500 TS 35 1001 0 1 220
1959167N21265 1959 36 NA GM BEULAH 1959-06-18 18:00:00 TS 22.0000 -97.3000 35 1001 hurdat_atl main 30 23 O_____________ hurdat_atl AL021959 22.0000 -97.3000 TS 35 1001 0 2 214
1959167N21265 1959 36 NA GM BEULAH 1959-06-18 21:00:00 TS 21.9225 -97.3425 main 23 10 P_____________ AL021959 21.9225 -97.3425 TS 32 -1 2 205
1959167N21265 1959 36 NA GM BEULAH 1959-06-19 00:00:00 TS 21.8000 -97.4000 30 hurdat_atl main 10 0 O_____________ hurdat_atl AL021959 21.8000 -97.4000 TD 30 -1 3 204
1959167N21265 1959 36 NA GM BEULAH 1959-06-19 03:00:00 TS 21.6175 -97.4901 main 10 0 P_____________ AL021959 21.6175 -97.4901 TD 27 -1 4 205
1959167N21265 1959 36 NA NA BEULAH 1959-06-19 06:00:00 TS 21.4000 -97.6000 25 hurdat_atl main 0 O_____________ hurdat_atl AL021959 21.4000 -97.6000 TD 25 -1 5 205

About IBTrACS Database

This database is a web-friendly format of International Best Track Archive for Climate Stewardship (IBTrACS), a global best track data archive curated by NOAA dating back to 1842.

Updated: 2021-12-01